Flight Track Log - Related Links

Times and Time Zones

All times are in EDT time to prevent confusion due to time zone crossing. See the SCX8701 flight status page for this flight to view local times or setup timezone preferences in your user account.

Time Position Orientation Groundspeed Altitude Reporting Facility
EDT Latitude Longitude Course Direction KTS MPH feet Rate Location/Type
Mon 06:41:11 PM 27.2161 -81.6684 25° Northeast 344 396 11,500  Level FlightAware ADS-B
Mon 06:41:43 PM 27.2690 -81.6399 32° Northeast 349 402 13,000 2,710 Climbing FlightAware ADS-B
Mon 06:42:13 PM 27.3079 -81.6070 39° Northeast 350 403 14,300 1,200 Climbing FlightAware ADS-B
Mon 06:42:43 PM 27.3427 -81.5746 38° Northeast 350 403 14,200 100 Descending FlightAware ADS-B
Mon 06:43:13 PM 27.3839 -81.5384 39° Northeast 348 400 14,400 882 Climbing FlightAware ADS-B
Mon 06:43:51 PM 27.4324 -81.4926 40° Northeast 356 410 15,200 696 Climbing FlightAware ADS-B
Mon 06:44:22 PM 27.4718 -81.4566 38° Northeast 348 400 15,200  Level FlightAware ADS-B
Mon 06:44:52 PM 27.5114 -81.4286 19° North 337 388 15,200 353 Level FlightAware ADS-B
Mon 06:45:13 PM 27.5434 -81.4221 North 327 376 15,500 2,000 Climbing FlightAware ADS-B
Mon 06:45:52 PM 27.6043 -81.4176 North 334 384 17,200 2,475 Climbing FlightAware ADS-B
Mon 06:46:33 PM 27.6680 -81.4117 North 342 394 18,800 2,366 Climbing FlightAware ADS-B
Mon 06:47:03 PM 27.7159 -81.4074 North 350 403 20,000 2,222 Climbing FlightAware ADS-B
Mon 06:47:54 PM 27.7965 -81.4005 North 362 417 21,800 1,696 Climbing FlightAware ADS-B
Mon 06:48:35 PM 27.8702 -81.3941 North 389 448 22,600 930 Climbing FlightAware ADS-B
Mon 06:49:05 PM 27.9271 -81.3891 North 419 482 22,900 800 Climbing FlightAware ADS-B
Mon 06:49:35 PM 27.9850 -81.3841 North 435 501 23,400 1,600 Climbing FlightAware ADS-B
Mon 06:50:05 PM 28.0470 -81.3784 North 439 505 24,500 1,629 Climbing FlightAware ADS-B
Mon 06:50:45 PM 28.1285 -81.3714 North 456 525 25,300 1,275 Climbing FlightAware ADS-B
Mon 06:51:25 PM 28.2161 -81.3639 North 468 539 26,200 1,371 Climbing FlightAware ADS-B
Mon 06:51:55 PM 28.2808 -81.3580 North 475 547 26,900 686 Climbing FlightAware ADS-B
Mon 06:52:35 PM 28.3699 -81.3503 North 478 550 27,000 154 Climbing FlightAware ADS-B
Mon 06:53:13 PM 28.4543 -81.3430 North 477 549 27,100 984 Climbing FlightAware ADS-B (KSFB)
Mon 06:53:36 PM 28.5036 -81.3389 North 478 550 28,000 1,395 Climbing FlightAware ADS-B (KSFB)
Mon 06:53:56 PM 28.5488 -81.3369 359° North 477 549 28,100 1,000 Climbing FlightAware ADS-B
Mon 06:54:30 PM 28.6240 -81.3428 355° North 477 549 28,900 1,313 Climbing FlightAware ADS-B (KSFB)
Mon 06:55:00 PM 28.6902 -81.3492 355° North 482 555 29,500 1,377 Climbing FlightAware ADS-B (KSFB)
Mon 06:55:31 PM 28.7590 -81.3559 355° North 485 558 30,300 1,455 Climbing FlightAware ADS-B (KSFB)
Mon 06:56:06 PM 28.8381 -81.3635 355° North 485 558 31,100 1,612 Climbing FlightAware ADS-B
Mon 06:56:38 PM 28.9107 -81.3700 356° North 480 552 32,100 1,839 Climbing FlightAware ADS-B (KSFB)
Mon 06:57:08 PM 28.9767 -81.3745 360° North 481 554 33,000 1,756 Climbing FlightAware ADS-B (KSFB)
Mon 06:57:19 PM 28.9878 -81.3742 North 482 555 33,300 1,625 Climbing FlightAware ADS-B (KSFB)
Mon 06:57:56 PM 29.0830 -81.3687 North 479 551 34,300 1,522 Climbing FlightAware ADS-B
Mon 06:58:26 PM 29.1406 -81.3655 North 475 547 35,000 1,543 Climbing FlightAware ADS-B (KSFB)
Mon 06:59:06 PM 29.2363 -81.3603 North 469 540 36,100 1,606 Climbing FlightAware ADS-B
Mon 06:59:37 PM 29.3031 -81.3568 North 460 529 36,900 761 Climbing FlightAware ADS-B
Mon 07:00:17 PM 29.3871 -81.3524 North 461 531 37,000 76 Climbing FlightAware ADS-B
Mon 07:00:56 PM 29.4733 -81.3480 North 463 533 37,000  Level FlightAware ADS-B
Mon 07:01:36 PM 29.5579 -81.3434 North 464 534 37,000  Level FlightAware ADS-B
Mon 07:02:07 PM 29.6248 -81.3397 North 464 534 37,000  Level FlightAware ADS-B
Mon 07:02:37 PM 29.6886 -81.3362 North 465 535 37,000  Level FlightAware ADS-B
Mon 07:03:08 PM 29.7531 -81.3326 North 466 536 37,000  Level FlightAware ADS-B
Mon 07:03:38 PM 29.8217 -81.3289 North 468 539 37,000  Level FlightAware ADS-B
Mon 07:04:17 PM 29.9050 -81.3245 North 468 539 37,000  Level FlightAware ADS-B
Mon 07:04:48 PM 29.9717 -81.3209 North 468 539 37,000  Level FlightAware ADS-B
Mon 07:05:27 PM 30.0565 -81.3163 North 469 540 37,000  Level FlightAware ADS-B
Mon 07:06:34 PM 30.1842 -81.3089 North 467 537 37,000  Level Miami Center
Mon 07:07:54 PM 30.3672 -81.2989 North 459 528 37,000  Level Jacksonville Center
Mon 07:08:54 PM 30.5028 -81.2942 North 465 535 37,000  Level Jacksonville Center
Mon 07:09:54 PM 30.6364 -81.2847 North 470 541 37,000  Level Jacksonville Center
Mon 07:10:54 PM 30.7719 -81.2775 North 475 547 37,000  Level Jacksonville Center
Mon 07:11:54 PM 30.9056 -81.2703 North 475 547 37,000  Level Jacksonville Center
Mon 07:12:54 PM 31.0392 -81.2631 North 475 547 37,000 600 Level Jacksonville Center
Mon 07:13:54 PM 31.1747 -81.2561 North 481 554 38,200 1,000 Climbing Jacksonville Center
Mon 07:14:54 PM 31.3103 -81.2489 North 474 545 39,000 400 Climbing Jacksonville Center
Mon 07:15:54 PM 31.4439 -81.2392 North 480 552 39,000  Level Jacksonville Center
Mon 07:16:54 PM 31.5642 -81.1858 21° North 496 571 39,000  Level Jacksonville Center
Mon 07:17:54 PM 31.6964 -81.0736 36° Northeast 528 608 39,000  Level Jacksonville Center
Mon 07:18:54 PM 31.8158 -80.9733 35° Northeast 533 613 39,000  Level Jacksonville Center
Mon 07:19:54 PM 31.9250 -80.8781 37° Northeast 540 621 39,000  Level Jacksonville Center
Mon 07:20:54 PM 32.0589 -80.7647 36° Northeast 540 621 39,000  Level Jacksonville Center
Mon 07:21:54 PM 32.1783 -80.6639 36° Northeast 533 613 39,000  Level Jacksonville Center
Mon 07:22:54 PM 32.3017 -80.5578 36° Northeast 541 623 39,000  Level Jacksonville Center
Mon 07:23:54 PM 32.4106 -80.4639 36° Northeast 541 623 39,000  Level Jacksonville Center
Mon 07:24:54 PM 32.5317 -80.3569 37° Northeast 541 623 39,000  Level Jacksonville Center
Mon 07:25:54 PM 32.6506 -80.2500 37° Northeast 541 623 39,000  Level Jacksonville Center
Mon 07:26:54 PM 32.7714 -80.1428 37° Northeast 541 623 39,000  Level Jacksonville Center
Mon 07:27:54 PM 32.8900 -80.0378 37° Northeast 541 623 39,000  Level Jacksonville Center
Mon 07:28:54 PM 33.0086 -79.9250 39° Northeast 541 623 39,000  Level Jacksonville Center
Mon 07:29:54 PM 33.1247 -79.8144 39° Northeast 541 623 39,000  Level Jacksonville Center
Mon 07:30:54 PM 33.2408 -79.7014 39° Northeast 541 623 39,000  Level Jacksonville Center
Mon 07:31:54 PM 33.3592 -79.5878 39° Northeast 541 623 39,000  Level Jacksonville Center
Mon 07:32:54 PM 33.4731 -79.4764 39° Northeast 536 617 39,000  Level Jacksonville Center
Mon 07:33:54 PM 33.5889 -79.3622 39° Northeast 536 617 39,000  Level Jacksonville Center
Mon 07:34:54 PM 33.7147 -79.2397 39° Northeast 531 611 39,000  Level Jacksonville Center
Mon 07:36:30 PM 33.8814 -79.0711 40° Northeast 513 590 39,000  Level Washington Center
Mon 07:37:31 PM 33.9994 -78.9558 39° Northeast 525 604 39,000  Level Washington Center
Mon 07:38:29 PM 34.1172 -78.8403 39° Northeast 538 619 39,000  Level Washington Center
Mon 07:39:29 PM 34.2353 -78.7244 39° Northeast 538 619 39,000  Level Washington Center
Mon 07:40:30 PM 34.3531 -78.6056 40° Northeast 543 625 39,000  Level Washington Center
Mon 07:41:31 PM 34.4686 -78.4889 40° Northeast 543 625 39,000  Level Washington Center
Mon 07:45:10 PM 34.9182 -78.0275 40° Northeast 553 636 39,000  Level FlightAware ADS-B
Mon 07:46:28 PM 35.0575 -77.8833 40° Northeast 548 631 39,000  Level Washington Center
Mon 07:47:31 PM 35.1725 -77.7644 40° Northeast 542 624 39,000  Level Washington Center
Mon 07:48:31 PM 35.2914 -77.6406 40° Northeast 542 624 39,000  Level Washington Center
Mon 07:49:29 PM 35.4103 -77.5239 39° Northeast 542 624 39,000  Level Washington Center
Mon 07:50:29 PM 35.5350 -77.4144 36° Northeast 542 624 39,000  Level Washington Center
Mon 07:51:31 PM 35.6639 -77.3025 35° Northeast 552 635 39,000  Level Washington Center
Mon 07:52:28 PM 35.7886 -77.1925 36° Northeast 552 635 39,000  Level Washington Center
Mon 07:53:29 PM 35.9111 -77.0847 35° Northeast 552 635 39,000  Level Washington Center
Mon 07:54:29 PM 36.0417 -76.9869 31° Northeast 546 628 39,000  Level Washington Center
Mon 07:55:30 PM 36.1719 -76.8939 30° Northeast 541 623 39,000  Level Washington Center
Mon 07:56:28 PM 36.3064 -76.7956 31° Northeast 541 623 39,000  Level Washington Center
Mon 07:57:29 PM 36.4347 -76.7022 30° Northeast 541 623 39,000  Level Washington Center
Mon 07:58:29 PM 36.5669 -76.6031 31° Northeast 541 623 39,000  Level Washington Center
Mon 07:59:30 PM 36.6950 -76.5089 31° Northeast 541 623 39,000  Level Washington Center
Mon 08:00:31 PM 36.8397 -76.3964 32° Northeast 546 628 39,000  Level Washington Center
Mon 08:01:29 PM 36.9697 -76.2989 31° Northeast 546 628 39,000  Level Washington Center
Mon 08:04:52 PM 37.4227 -75.9567 32° Northeast 533 613 39,000  Level FlightAware ADS-B (KWWD)
Mon 08:08:24 PM 37.8743 -75.6149 31° Northeast 541 623 39,000  Level FlightAware ADS-B (KWWD)
Mon 08:09:03 PM 37.9574 -75.5511 31° Northeast 542 624 39,000  Level FlightAware ADS-B (KWWD)
Mon 08:09:49 PM 38.0556 -75.4752 31° Northeast 543 625 39,000  Level FlightAware ADS-B (KWWD)
Mon 08:10:25 PM 38.1327 -75.4156 31° Northeast 543 625 39,000 -593 Level FlightAware ADS-B (KWWD)
Mon 08:11:10 PM 38.2292 -75.3411 31° Northeast 547 629 38,200 -987 Descending FlightAware ADS-B (KWWD)
Mon 08:11:44 PM 38.3029 -75.2838 32° Northeast 547 629 37,700 -1,500 Descending FlightAware ADS-B (KWWD)
Mon 08:11:58 PM 38.3305 -75.2632 32° Northeast 565 650 37,000 -1,119 Descending FlightAware ADS-B
Mon 08:12:43 PM 38.4354 -75.1819 31° Northeast 564 649 36,600 -759 Descending FlightAware ADS-B (KWWD)
Mon 08:13:25 PM 38.5279 -75.1094 31° Northeast 561 646 35,900 -1,000 Descending FlightAware ADS-B (KWWD)
Mon 08:14:01 PM 38.5814 -75.0678 32° Northeast 563 648 35,300 -783 Descending FlightAware ADS-B
Mon 08:14:34 PM 38.6717 -74.9983 32° Northeast 563 648 35,000 -243 Descending FlightAware ADS-B
Mon 08:15:15 PM 38.7735 -74.9184 32° Northeast 562 647 35,000 -1,745 Level FlightAware ADS-B (KWWD)
Mon 08:16:55 PM 38.9957 -74.7421 32° Northeast 553 636 30,900 -2,408 Descending FlightAware ADS-B (KWWD)
Mon 08:17:47 PM 39.1080 -74.6527 32° Northeast 551 634 28,900 -2,110 Descending FlightAware ADS-B
Mon 08:18:26 PM 39.1900 -74.5870 32° Northeast 528 608 27,700 -2,038 Descending FlightAware ADS-B (KWWD)
Mon 08:18:40 PM 39.2205 -74.5637 32° Northeast 522 601 27,100 -2,400 Descending FlightAware ADS-B
Mon 08:19:11 PM 39.2793 -74.5096 37° Northeast 520 598 25,900 -3,300 Descending FlightAware ADS-B
Mon 08:19:20 PM 39.2955 -74.4903 44° Northeast 535 616 24,900 -2,667 Descending FlightAware ADS-B
Mon 08:19:56 PM 39.3545 -74.4020 50° Northeast 522 601 23,900 -2,289 Descending FlightAware ADS-B (KWWD)
Mon 08:20:36 PM 39.4144 -74.3055 52° Northeast 498 573 22,000 -2,914 Descending FlightAware ADS-B (KWWD)
Mon 08:21:06 PM 39.4585 -74.2377 50° Northeast 476 548 20,500 -2,600 Descending FlightAware ADS-B (KWWD)
Mon 08:21:36 PM 39.5028 -74.1752 45° Northeast 462 532 19,400 -1,452 Descending FlightAware ADS-B (KWWD)
Mon 08:22:08 PM 39.5495 -74.1138 46° Northeast 436 502 19,000 -348 Descending FlightAware ADS-B
Mon 08:22:45 PM 39.6023 -74.0453 45° Northeast 433 498 19,000  Level FlightAware ADS-B (KWWD)
Mon 08:23:30 PM 39.6645 -73.9620 46° Northeast 432 497 19,000 -444 Level FlightAware ADS-B
Mon 08:24:06 PM 39.7147 -73.8951 47° Northeast 423 487 18,400 -1,600 Descending FlightAware ADS-B (KWWD)
Mon 08:24:45 PM 39.7681 -73.8242 46° Northeast 414 476 17,000 -2,160 Descending FlightAware ADS-B
Mon 08:24:56 PM 39.7825 -73.8048 47° Northeast 403 464 16,600 -2,204 Descending FlightAware ADS-B (KWWD)
Mon 08:25:34 PM 39.8319 -73.7387 46° Northeast 401 461 15,200 -2,368 Descending FlightAware ADS-B
Mon 08:26:12 PM 39.8815 -73.6729 46° Northeast 395 455 13,600 -1,271 Descending FlightAware ADS-B
Mon 08:29:30 PM 40.1163 -73.3568 46° Northeast 335 386 10,200 -917 Descending FlightAware ADS-B (KSNC)
Mon 08:31:26 PM 40.2293 -73.2034 47° Northeast 291 335 8,800 -604 Descending FlightAware ADS-B (KSNC)
Mon 08:31:49 PM 40.2488 -73.1766 47° Northeast 291 335 8,800  Level FlightAware ADS-B (KSNC)
Mon 08:32:22 PM 40.2816 -73.1316 46° Northeast 293 337 8,800  Level FlightAware ADS-B (KSNC)
Mon 08:32:43 PM 40.3009 -73.1060 46° Northeast 291 335 8,800  Level FlightAware ADS-B (KSNC)
Mon 08:33:03 PM 40.3204 -73.0794 46° Northeast 289 333 8,800  Level FlightAware ADS-B (KSNC)
Mon 08:33:23 PM 40.3390 -73.0540 46° Northeast 291 335 8,800 -649 Level FlightAware ADS-B (KSNC)
Mon 08:33:40 PM 40.3527 -73.0349 46° Northeast 293 337 8,400 -1,370 Descending FlightAware ADS-B (KSNC)
Mon 08:36:27 PM 40.5421 -72.9628 354° North 256 295 4,600 -1,376 Descending FlightAware ADS-B (KSNC)
Mon 08:36:30 PM 40.5454 -72.9648 337° Northwest 257 296 4,500 -1,263 Descending FlightAware ADS-B (KSNC)
Mon 08:36:46 PM 40.5602 -72.9804 315° West 255 293 4,200 -1,250 Descending FlightAware ADS-B (KSNC)
Mon 08:37:18 PM 40.5771 -73.0025 314° West 252 290 3,500 -1,404 Descending FlightAware ADS-B (KSNC)
Mon 08:37:33 PM 40.5985 -73.0320 314° West 249 287 3,100 -706 Descending FlightAware ADS-B (KSNC)
Mon 08:38:09 PM 40.6269 -73.0704 314° West 230 265 2,900 -321 Descending FlightAware ADS-B (KSNC)
Mon 08:38:29 PM 40.6409 -73.0902 313° West 219 252 2,800  Descending FlightAware ADS-B (KSNC)
Mon 08:38:50 PM 40.6553 -73.1104 313° West 207 238 2,900 154 Climbing FlightAware ADS-B (KSNC)
Mon 08:39:08 PM 40.6651 -73.1239 312° West 192 221 2,900 -484 Level FlightAware ADS-B (KSNC)
Mon 08:39:52 PM 40.6957 -73.1528 329° Northwest 171 197 2,400 -581 Descending FlightAware ADS-B (KSNC)
Mon 08:40:41 PM 40.7208 -73.1728 329° Northwest 186 214 2,000 -703 Descending Boston Center
Mon 08:41:43 PM 40.7553 -73.1578 18° North 162 186 1,100 -780 Descending Boston Center
Mon 08:42:44 PM 40.7811 -73.1225 46° Northeast 142 163 400 -443 Descending Boston Center
Mon 08:43:45 PM 40.8069 -73.0892 44° Northeast 141 162 200 -197 Descending Boston Center

Login

Don't have an account? Register now (free) for customized features, flight alerts, and more!